Honeoye Falls, NY

11:42 AM EDT on September 01, 2015 (GMT -0400)
Old French Road | | Change Station
CLOSE
Current Station
Personal Weather Station
Location: Honeoye Falls, NY
Elevation: 653 ft
Nearby Weather Stations

Elev 653 ft 42.98 °N, 77.61 °W | Updated 17 seconds ago

Overcast
Overcast
79.3 °F
Feels Like 83 °F
N
0.0
Wind Variable Wind from South

Today
High -- | Low -- °F
--% Chance of Precip.
Yesterday
High -- | Low -- °F
Precip. -- in
6:34 AM 7:45 PM
Waning Gibbous, 88% visible
Pressure 30.10 in
Visibility 7.0 miles
Clouds Mostly Cloudy 1600 ft
Mostly Cloudy 2300 ft
Heat Index 83 °F
Dew Point 72 °F
Humidity 78%
Rainfall 0.00 in
Snow Depth Not available.
UV 4 out of 12
Pollen 10.10 out of 12
Air Quality Not available.
Flu Activity Not available.
SPECI KROC 011526Z 21003KT 7SM BKN016 BKN023 24/20 A3010 RMK AO2 T02440200
Pressure 30.10 in
Visibility 7.0 miles
Clouds Mostly Cloudy 1600 ft
Mostly Cloudy 2300 ft
Heat Index 83 °F
Dew Point 72 °F
Humidity 78%
Rainfall 0.00 in
Snow Depth Not available.
UV 4 out of 12
Pollen 10.10 out of 12
Air Quality Not available.
Flu Activity Not available.
SPECI KROC 011526Z 21003KT 7SM BKN016 BKN023 24/20 A3010 RMK AO2 T02440200

10-Day Weather Forecast

×

Almanac

Astronomy

Sep. 01, 2015 Rise Set
Actual Time
Civil Twilight
Nautical Twilight
Astronomical Twilight
Moon
Length of Visible Light
Length of Day
Tomorrow will be .
, % of the Moon is Illuminated

Today's Extremes

State Highs State Lows

Community

WunderPhotos

Upload Photos

1,851,538 photos uploaded!

WunderBlogs® & News

Nearby

Air Quality

  Air Quality AQ Index Pollutant
Not available.

Snow Depth

Station Depth Elevation

Earthquake Activity

City Distance Mag. Time & Date
Minimum magnitude displayed is 2.5.

Coastal Water Temperatures

Place Temperature

Stations

Nearby Weather Stations

Station Location Temp. Windchill Dew Point Humidity Wind Precip. Elev Updated Type